New Yoshino — JG5527 — position and weather

sailwx.info

Track history (hours):
 
Tides and Currents Weather Stations Pressure Air Temp Water Temp Dewpoint Dewpoint Depression Visibility Wind Speed Wind Dir Waves Ship Positions

New Yoshino

Last reported at 2016-Jul-23 08:08 UTC. Time now 2016-Jul-26 16:07 UTC.
Position N 34°04' E 135°01'.

Length 102 m; draft 6.7 m.

Type: Tanker. MMSI: 431300724.

Date/timePositionNaut miles runAvg speedWind from/ knotsBaromVisibWave heightAir tempDewpointWater temp
2016-Jul-23 08:08N 34°04' E 135°01'610.5
2016-Jul-23 07:34N 34°08' E 135°06'1 0.2
2016-Jul-23 00:25N 34°07' E 135°07'2 2.0
2016-Jul-22 23:33N 34°09' E 135°08'0 0.2
2016-Jul-22 22:31N 34°09' E 135°08'0 0.0
2016-Jul-22 21:28N 34°09' E 135°08'0 0.0
2016-Jul-22 20:31N 34°09' E 135°08'0 0.0
2016-Jul-22 19:28N 34°09' E 135°08'0 0.0
2016-Jul-22 18:31N 34°09' E 135°08'0 0.0
2016-Jul-22 17:16N 34°09' E 135°08'0 0.0
2016-Jul-22 16:28N 34°09' E 135°08'0 0.0
2016-Jul-22 15:22N 34°09' E 135°08'0 0.1
2016-Jul-22 14:31N 34°09' E 135°08'0 0.1
2016-Jul-22 13:31N 34°09' E 135°08'0 0.0
2016-Jul-22 12:31N 34°09' E 135°08'0 0.1
2016-Jul-22 11:28N 34°09' E 135°08'0 0.0
2016-Jul-22 10:31N 34°09' E 135°08'0 0.0
2016-Jul-22 09:31N 34°09' E 135°08'0 0.0
2016-Jul-22 08:31N 34°09' E 135°08'0 0.0
2016-Jul-22 07:16N 34°09' E 135°08'0 0.0
2016-Jul-22 04:30N 34°09' E 135°08'8 7.9
2016-Jul-22 03:33N 34°03' E 135°02'242 6.9
2016-Jul-20 16:33N 35°09' E 139°44'1211.7
2016-Jul-20 15:34N 35°20' E 139°42'1212.4
2016-Jul-20 14:33N 35°30' E 139°52'9 7.7
2016-Jul-20 13:26N 35°31' E 140°02'0 0.0
2016-Jul-20 12:29N 35°31' E 140°02'0 0.0
2016-Jul-20 11:23N 35°31' E 140°02'0 0.0
2016-Jul-20 10:29N 35°31' E 140°02'0 0.0
2016-Jul-20 09:29N 35°31' E 140°02'0 0.0
2016-Jul-20 08:32N 35°31' E 140°02'0 0.0
2016-Jul-20 07:32N 35°31' E 140°02'0 0.0
2016-Jul-20 06:26N 35°31' E 140°02'0 0.0
2016-Jul-20 05:33N 35°31' E 140°02'5 5.3
2016-Jul-20 04:34N 35°30' E 139°56'1312.8
2016-Jul-20 03:33N 35°21' E 139°45'1212.1
2016-Jul-20 02:33N 35°09' E 139°46'1413.5
2016-Jul-20 01:33N 34°55' E 139°45'1512.5
2016-Jul-20 00:20N 34°55' E 140°03'3014.2
2016-Jul-19 22:14N 35°13' E 140°32'1013.9
2016-Jul-19 21:32N 35°21' E 140°40'1313.3
2016-Jul-19 20:32N 35°31' E 140°50'1414.0
2016-Jul-19 19:30N 35°44' E 140°58'1914.5
2016-Jul-19 18:12N 36°03' E 140°60'30 1.3
2016-Jul-18 19:34N 36°32' E 141°03'1413.3
2016-Jul-18 18:32N 36°19' E 141°02'1313.3
2016-Jul-18 17:32N 36°05' E 141°00'1713.4
2016-Jul-18 16:14N 35°48' E 140°58'912.8
2016-Jul-18 15:34N 35°39' E 140°56'1614.3
2016-Jul-18 14:28N 35°27' E 140°45'1515.0
2016-Jul-18 13:26N 35°15' E 140°34'1514.2
2016-Jul-18 12:24N 35°04' E 140°22'1113.5
2016-Jul-18 11:33N 34°57' E 140°10'2211.0
2016-Jul-18 09:32N 34°57' E 139°43'1313.2
2016-Jul-18 08:33N 35°09' E 139°45'1212.0
2016-Jul-18 07:33N 35°21' E 139°43'1010.2
2016-Jul-18 06:33N 35°31' E 139°46'0 0.4
2016-Jul-18 05:29N 35°31' E 139°46'0 0.0
2016-Jul-18 04:32N 35°31' E 139°46'0 0.0
2016-Jul-18 03:32N 35°31' E 139°46'0 0.0
2016-Jul-18 02:32N 35°31' E 139°46'0 0.0
2016-Jul-18 01:32N 35°31' E 139°46'0 0.0
2016-Jul-18 00:32N 35°31' E 139°46'1 0.7
2016-Jul-17 23:33N 35°30' E 139°46'3 2.6
2016-Jul-17 22:33N 35°28' E 139°47'3 2.5
2016-Jul-17 21:32N 35°30' E 139°45'0 0.0
2016-Jul-17 20:32N 35°30' E 139°45'0 0.0
2016-Jul-17 19:32N 35°30' E 139°45'0 0.0
2016-Jul-17 18:32N 35°30' E 139°45'0 0.0
2016-Jul-17 17:32N 35°30' E 139°45'0 0.0
2016-Jul-17 16:32N 35°30' E 139°45'0 0.0
2016-Jul-17 15:32N 35°30' E 139°45'0 0.0
2016-Jul-17 14:32N 35°30' E 139°45'0 0.0
2016-Jul-17 13:32N 35°30' E 139°45'0 0.0
2016-Jul-17 12:32N 35°30' E 139°45'0 0.0
2016-Jul-17 11:32N 35°30' E 139°45'0 0.0
2016-Jul-17 10:32N 35°30' E 139°45'0 0.0
2016-Jul-17 09:29N 35°30' E 139°45'0 0.0
2016-Jul-17 08:31N 35°30' E 139°45'0 0.0
2016-Jul-17 07:29N 35°30' E 139°45'0 0.0
2016-Jul-17 06:32N 35°30' E 139°45'0 0.0
2016-Jul-17 04:32N 35°30' E 139°45'0 0.0
2016-Jul-17 03:31N 35°30' E 139°45'0 0.5
2016-Jul-17 02:33N 35°30' E 139°45'6 6.1
2016-Jul-17 01:33N 35°24' E 139°45'0 0.0
2016-Jul-17 00:30N 35°24' E 139°45'9 9.0
2016-Jul-16 23:32N 35°15' E 139°47'1313.7
2016-Jul-16 22:33N 35°02' E 139°44'20 9.8
2016-Jul-16 20:33N 34°57' E 140°07'2713.3
2016-Jul-16 18:32N 35°14' E 140°32'1313.3
2016-Jul-16 17:33N 35°24' E 140°42'1412.7
2016-Jul-16 16:26N 35°35' E 140°53'1413.4
2016-Jul-16 15:25N 35°48' E 140°58'18 0.6
2016-Jul-15 08:19N 35°31' E 140°49'1013.0
2016-Jul-15 07:33N 35°23' E 140°42'3712.5
2016-Jul-15 04:33N 34°57' E 140°09'2210.7
2016-Jul-15 02:33N 34°56' E 139°43'1312.9
2016-Jul-15 01:33N 35°09' E 139°45'1212.1
2016-Jul-15 00:34N 35°21' E 139°43'1010.4
2016-Jul-14 23:34N 35°31' E 139°46'1 0.5
2016-Jul-14 22:33N 35°31' E 139°46'0 0.0
2016-Jul-14 21:33N 35°31' E 139°46'4 4.0
2016-Jul-14 20:33N 35°29' E 139°42'5 5.3
2016-Jul-14 19:32N 35°24' E 139°45'0 0.0
2016-Jul-14 18:32N 35°24' E 139°45'0 0.0
2016-Jul-14 17:32N 35°24' E 139°45'0 0.0
2016-Jul-14 16:32N 35°24' E 139°45'0 0.0
2016-Jul-14 15:32N 35°24' E 139°45'0 0.0
2016-Jul-14 14:32N 35°24' E 139°45'0 0.0
2016-Jul-14 13:32N 35°24' E 139°45'0 0.0
2016-Jul-14 12:29N 35°24' E 139°45'0 0.1
2016-Jul-14 11:32N 35°24' E 139°45'0 0.0
2016-Jul-14 10:32N 35°24' E 139°45'0 0.2
2016-Jul-14 09:32N 35°24' E 139°45'0 0.0
2016-Jul-14 08:32N 35°24' E 139°45'0 0.0
2016-Jul-14 07:32N 35°24' E 139°45'1 0.9
2016-Jul-14 06:33N 35°25' E 139°46'1211.7
2016-Jul-14 05:33N 35°31' E 139°58'4 3.7
2016-Jul-14 04:31N 35°31' E 140°02'0 0.0
2016-Jul-14 03:28N 35°31' E 140°02'0 0.0
2016-Jul-14 02:22N 35°31' E 140°02'0 0.0
2016-Jul-14 01:28N 35°31' E 140°02'0 0.0
2016-Jul-14 00:28N 35°31' E 140°02'0 0.0
2016-Jul-13 23:10N 35°31' E 140°02'0 0.0
2016-Jul-13 22:29N 35°31' E 140°02'2 2.0
2016-Jul-13 21:33N 35°33' E 140°02'5 4.9
2016-Jul-13 20:32N 35°36' E 140°07'0 0.0
2016-Jul-13 19:31N 35°36' E 140°07'0 0.0
2016-Jul-13 18:32N 35°36' E 140°07'0 0.0
2016-Jul-13 17:28N 35°36' E 140°07'0 0.0
2016-Jul-13 16:28N 35°36' E 140°07'0 0.0
2016-Jul-13 15:25N 35°36' E 140°07'0 0.0
2016-Jul-13 14:31N 35°36' E 140°07'0 0.0
2016-Jul-13 13:32N 35°36' E 140°07'0 0.0
2016-Jul-13 12:31N 35°36' E 140°07'0 0.0
2016-Jul-13 11:28N 35°36' E 140°07'0 0.0
2016-Jul-13 10:31N 35°36' E 140°07'0 0.0
2016-Jul-13 09:31N 35°36' E 140°07'0 0.0
2016-Jul-13 08:31N 35°36' E 140°07'  
Track history (hours):
 
Tides and Currents Weather Stations Pressure Air Temp Water Temp Dewpoint Dewpoint Depression Visibility Wind Speed Wind Dir Waves Ship Positions

New Yoshino

Last reported at 2016-Jul-23 08:08 UTC. Time now 2016-Jul-26 16:07 UTC.
Position N 34°04' E 135°01'.

Length 102 m; draft 6.7 m.

Type: Tanker. MMSI: 431300724.

Date/timePositionNaut miles runAvg speedWind from/ knotsBaromVisibWave heightAir tempDewpointWater temp
2016-Jul-23 08:08N 34°04' E 135°01'610.5
2016-Jul-23 07:34N 34°08' E 135°06'1 0.2
2016-Jul-23 00:25N 34°07' E 135°07'2 2.0
2016-Jul-22 23:33N 34°09' E 135°08'0 0.2
2016-Jul-22 22:31N 34°09' E 135°08'0 0.0
2016-Jul-22 21:28N 34°09' E 135°08'0 0.0
2016-Jul-22 20:31N 34°09' E 135°08'0 0.0
2016-Jul-22 19:28N 34°09' E 135°08'0 0.0
2016-Jul-22 18:31N 34°09' E 135°08'0 0.0
2016-Jul-22 17:16N 34°09' E 135°08'0 0.0
2016-Jul-22 16:28N 34°09' E 135°08'0 0.0
2016-Jul-22 15:22N 34°09' E 135°08'0 0.1
2016-Jul-22 14:31N 34°09' E 135°08'0 0.1
2016-Jul-22 13:31N 34°09' E 135°08'0 0.0
2016-Jul-22 12:31N 34°09' E 135°08'0 0.1
2016-Jul-22 11:28N 34°09' E 135°08'0 0.0
2016-Jul-22 10:31N 34°09' E 135°08'0 0.0
2016-Jul-22 09:31N 34°09' E 135°08'0 0.0
2016-Jul-22 08:31N 34°09' E 135°08'0 0.0
2016-Jul-22 07:16N 34°09' E 135°08'0 0.0
2016-Jul-22 04:30N 34°09' E 135°08'8 7.9
2016-Jul-22 03:33N 34°03' E 135°02'242 6.9
2016-Jul-20 16:33N 35°09' E 139°44'1211.7
2016-Jul-20 15:34N 35°20' E 139°42'1212.4
2016-Jul-20 14:33N 35°30' E 139°52'9 7.7
2016-Jul-20 13:26N 35°31' E 140°02'0 0.0
2016-Jul-20 12:29N 35°31' E 140°02'0 0.0
2016-Jul-20 11:23N 35°31' E 140°02'0 0.0
2016-Jul-20 10:29N 35°31' E 140°02'0 0.0
2016-Jul-20 09:29N 35°31' E 140°02'0 0.0
2016-Jul-20 08:32N 35°31' E 140°02'0 0.0
2016-Jul-20 07:32N 35°31' E 140°02'0 0.0
2016-Jul-20 06:26N 35°31' E 140°02'0 0.0
2016-Jul-20 05:33N 35°31' E 140°02'5 5.3
2016-Jul-20 04:34N 35°30' E 139°56'1312.8
2016-Jul-20 03:33N 35°21' E 139°45'1212.1
2016-Jul-20 02:33N 35°09' E 139°46'1413.5
2016-Jul-20 01:33N 34°55' E 139°45'1512.5
2016-Jul-20 00:20N 34°55' E 140°03'3014.2
2016-Jul-19 22:14N 35°13' E 140°32'1013.9
2016-Jul-19 21:32N 35°21' E 140°40'1313.3
2016-Jul-19 20:32N 35°31' E 140°50'1414.0
2016-Jul-19 19:30N 35°44' E 140°58'1914.5
2016-Jul-19 18:12N 36°03' E 140°60'30 1.3
2016-Jul-18 19:34N 36°32' E 141°03'1413.3
2016-Jul-18 18:32N 36°19' E 141°02'1313.3
2016-Jul-18 17:32N 36°05' E 141°00'1713.4
2016-Jul-18 16:14N 35°48' E 140°58'912.8
2016-Jul-18 15:34N 35°39' E 140°56'1614.3
2016-Jul-18 14:28N 35°27' E 140°45'1515.0
2016-Jul-18 13:26N 35°15' E 140°34'1514.2
2016-Jul-18 12:24N 35°04' E 140°22'1113.5
2016-Jul-18 11:33N 34°57' E 140°10'2211.0
2016-Jul-18 09:32N 34°57' E 139°43'1313.2
2016-Jul-18 08:33N 35°09' E 139°45'1212.0
2016-Jul-18 07:33N 35°21' E 139°43'1010.2
2016-Jul-18 06:33N 35°31' E 139°46'0 0.4
2016-Jul-18 05:29N 35°31' E 139°46'0 0.0
2016-Jul-18 04:32N 35°31' E 139°46'0 0.0
2016-Jul-18 03:32N 35°31' E 139°46'0 0.0
2016-Jul-18 02:32N 35°31' E 139°46'0 0.0
2016-Jul-18 01:32N 35°31' E 139°46'0 0.0
2016-Jul-18 00:32N 35°31' E 139°46'1 0.7
2016-Jul-17 23:33N 35°30' E 139°46'3 2.6
2016-Jul-17 22:33N 35°28' E 139°47'3 2.5
2016-Jul-17 21:32N 35°30' E 139°45'0 0.0
2016-Jul-17 20:32N 35°30' E 139°45'0 0.0
2016-Jul-17 19:32N 35°30' E 139°45'0 0.0
2016-Jul-17 18:32N 35°30' E 139°45'0 0.0
2016-Jul-17 17:32N 35°30' E 139°45'0 0.0
2016-Jul-17 16:32N 35°30' E 139°45'0 0.0
2016-Jul-17 15:32N 35°30' E 139°45'0 0.0
2016-Jul-17 14:32N 35°30' E 139°45'0 0.0
2016-Jul-17 13:32N 35°30' E 139°45'0 0.0
2016-Jul-17 12:32N 35°30' E 139°45'0 0.0
2016-Jul-17 11:32N 35°30' E 139°45'0 0.0
2016-Jul-17 10:32N 35°30' E 139°45'0 0.0
2016-Jul-17 09:29N 35°30' E 139°45'0 0.0
2016-Jul-17 08:31N 35°30' E 139°45'0 0.0
2016-Jul-17 07:29N 35°30' E 139°45'0 0.0
2016-Jul-17 06:32N 35°30' E 139°45'0 0.0
2016-Jul-17 04:32N 35°30' E 139°45'0 0.0
2016-Jul-17 03:31N 35°30' E 139°45'0 0.5
2016-Jul-17 02:33N 35°30' E 139°45'6 6.1
2016-Jul-17 01:33N 35°24' E 139°45'0 0.0
2016-Jul-17 00:30N 35°24' E 139°45'9 9.0
2016-Jul-16 23:32N 35°15' E 139°47'1313.7
2016-Jul-16 22:33N 35°02' E 139°44'20 9.8
2016-Jul-16 20:33N 34°57' E 140°07'2713.3
2016-Jul-16 18:32N 35°14' E 140°32'1313.3
2016-Jul-16 17:33N 35°24' E 140°42'1412.7
2016-Jul-16 16:26N 35°35' E 140°53'1413.4
2016-Jul-16 15:25N 35°48' E 140°58'18 0.6
2016-Jul-15 08:19N 35°31' E 140°49'1013.0
2016-Jul-15 07:33N 35°23' E 140°42'3712.5
2016-Jul-15 04:33N 34°57' E 140°09'2210.7
2016-Jul-15 02:33N 34°56' E 139°43'1312.9
2016-Jul-15 01:33N 35°09' E 139°45'1212.1
2016-Jul-15 00:34N 35°21' E 139°43'1010.4
2016-Jul-14 23:34N 35°31' E 139°46'1 0.5
2016-Jul-14 22:33N 35°31' E 139°46'0 0.0
2016-Jul-14 21:33N 35°31' E 139°46'4 4.0
2016-Jul-14 20:33N 35°29' E 139°42'5 5.3
2016-Jul-14 19:32N 35°24' E 139°45'0 0.0
2016-Jul-14 18:32N 35°24' E 139°45'0 0.0
2016-Jul-14 17:32N 35°24' E 139°45'0 0.0
2016-Jul-14 16:32N 35°24' E 139°45'0 0.0
2016-Jul-14 15:32N 35°24' E 139°45'0 0.0
2016-Jul-14 14:32N 35°24' E 139°45'0 0.0
2016-Jul-14 13:32N 35°24' E 139°45'0 0.0
2016-Jul-14 12:29N 35°24' E 139°45'0 0.1
2016-Jul-14 11:32N 35°24' E 139°45'0 0.0
2016-Jul-14 10:32N 35°24' E 139°45'0 0.2
2016-Jul-14 09:32N 35°24' E 139°45'0 0.0
2016-Jul-14 08:32N 35°24' E 139°45'0 0.0
2016-Jul-14 07:32N 35°24' E 139°45'1 0.9
2016-Jul-14 06:33N 35°25' E 139°46'1211.7
2016-Jul-14 05:33N 35°31' E 139°58'4 3.7
2016-Jul-14 04:31N 35°31' E 140°02'0 0.0
2016-Jul-14 03:28N 35°31' E 140°02'0 0.0
2016-Jul-14 02:22N 35°31' E 140°02'0 0.0
2016-Jul-14 01:28N 35°31' E 140°02'0 0.0
2016-Jul-14 00:28N 35°31' E 140°02'0 0.0
2016-Jul-13 23:10N 35°31' E 140°02'0 0.0
2016-Jul-13 22:29N 35°31' E 140°02'2 2.0
2016-Jul-13 21:33N 35°33' E 140°02'5 4.9
2016-Jul-13 20:32N 35°36' E 140°07'0 0.0
2016-Jul-13 19:31N 35°36' E 140°07'0 0.0
2016-Jul-13 18:32N 35°36' E 140°07'0 0.0
2016-Jul-13 17:28N 35°36' E 140°07'0 0.0
2016-Jul-13 16:28N 35°36' E 140°07'0 0.0
2016-Jul-13 15:25N 35°36' E 140°07'0 0.0
2016-Jul-13 14:31N 35°36' E 140°07'0 0.0
2016-Jul-13 13:32N 35°36' E 140°07'0 0.0
2016-Jul-13 12:31N 35°36' E 140°07'0 0.0
2016-Jul-13 11:28N 35°36' E 140°07'0 0.0
2016-Jul-13 10:31N 35°36' E 140°07'0 0.0
2016-Jul-13 09:31N 35°36' E 140°07'0 0.0
2016-Jul-13 08:31N 35°36' E 140°07'  

Dump ship's entire track history